createdAt,value
2019-02-22T00:01:42.038Z,101071.33
2019-02-22T00:04:45.767Z,101066.41
2019-02-22T00:07:49.365Z,101069.55
2019-02-22T00:10:52.859Z,101073.98
2019-02-22T00:13:56.378Z,101077.16
2019-02-22T00:16:59.887Z,101074.52
2019-02-22T00:20:03.685Z,101066.19
2019-02-22T00:23:07.349Z,101068.84
2019-02-22T00:26:11.302Z,101076.41
2019-02-22T00:29:14.906Z,101079.43
2019-02-22T00:32:18.386Z,101082.65
2019-02-22T00:35:21.928Z,101082.53
2019-02-22T00:38:27.130Z,101080.91
2019-02-22T00:41:30.617Z,101091.91
2019-02-22T00:44:34.253Z,101083.72
2019-02-22T00:47:37.766Z,101092.07
2019-02-22T00:50:42.268Z,101089.88
2019-02-22T00:53:45.765Z,101093.47
2019-02-22T00:56:49.266Z,101094.72
2019-02-22T00:59:52.710Z,101100.09
2019-02-22T01:02:56.285Z,101100.55
2019-02-22T01:05:59.782Z,101102.25
2019-02-22T01:09:04.228Z,101099.76
2019-02-22T01:12:07.781Z,101098.84
2019-02-22T01:15:11.414Z,101095.78
2019-02-22T01:18:15.009Z,101094.46
2019-02-22T01:21:18.509Z,101100.70
2019-02-22T01:24:22.005Z,101105.92
2019-02-22T01:27:25.512Z,101103.35
2019-02-22T01:30:29.010Z,101104.67
2019-02-22T01:33:34.555Z,101099.95
2019-02-22T01:36:38.103Z,101105.63
2019-02-22T01:39:41.569Z,101105.24
2019-02-22T01:42:46.101Z,101105.77
2019-02-22T01:45:49.575Z,101113.19
2019-02-22T01:48:53.102Z,101104.45
2019-02-22T01:51:56.581Z,101110.20
2019-02-22T01:55:00.340Z,101109.74
2019-02-22T01:58:03.989Z,101111.60
2019-02-22T02:01:07.490Z,101112.47
2019-02-22T02:04:12.015Z,101110.28
2019-02-22T02:07:16.564Z,101117.31
2019-02-22T02:10:20.115Z,101122.60
2019-02-22T02:13:23.748Z,101137.16
2019-02-22T02:16:27.267Z,101134.10
2019-02-22T02:19:30.755Z,101138.08
2019-02-22T02:22:34.255Z,101142.61
2019-02-22T02:25:37.759Z,101132.48
2019-02-22T02:28:41.491Z,101139.58
2019-02-22T02:31:44.981Z,101139.09
2019-02-22T02:34:48.470Z,101145.64
2019-02-22T02:37:51.971Z,101146.20
2019-02-22T02:41:08.073Z,101145.33
2019-02-22T02:44:00.816Z,101155.92
2019-02-22T02:47:04.308Z,101158.11
2019-02-22T02:50:07.959Z,101158.11
2019-02-22T02:53:11.511Z,101156.00
2019-02-22T02:56:15.018Z,101156.00
2019-02-22T02:59:18.540Z,101160.91
2019-02-22T03:02:26.278Z,101161.29
2019-02-22T03:05:43.143Z,101167.61
2019-02-22T03:08:48.690Z,101170.25
2019-02-22T03:11:52.189Z,101177.33
2019-02-22T03:14:55.783Z,101176.56
2019-02-22T03:17:59.382Z,101175.62
2019-02-22T03:21:03.966Z,101189.23
2019-02-22T03:24:08.539Z,101192.34
2019-02-22T03:27:12.161Z,101201.22
2019-02-22T03:30:15.713Z,101200.38
2019-02-22T03:33:19.357Z,101207.08
2019-02-22T03:36:24.087Z,101210.97
2019-02-22T03:39:27.575Z,101219.06
2019-02-22T03:42:31.035Z,101229.50
2019-02-22T03:45:34.498Z,101232.15
2019-02-22T03:48:37.976Z,101241.80
2019-02-22T03:51:42.627Z,101236.65
2019-02-22T03:54:46.104Z,101241.00
2019-02-22T03:57:50.631Z,101239.67
2019-02-22T04:00:54.133Z,101259.14
2019-02-22T04:03:57.626Z,101258.77
2019-02-22T04:07:01.156Z,101261.41
2019-02-22T04:10:04.846Z,101258.34
2019-02-22T04:13:08.376Z,101271.13
2019-02-22T04:16:11.847Z,101267.61
2019-02-22T04:19:15.390Z,101274.64
2019-02-22T04:22:18.851Z,101278.20
2019-02-22T04:25:22.342Z,101291.05
2019-02-22T04:28:25.845Z,101289.34
2019-02-22T04:31:30.378Z,101292.38
2019-02-22T04:34:33.931Z,101291.05
2019-02-22T04:37:37.582Z,101298.92
2019-02-22T04:40:41.199Z,101301.25
2019-02-22T04:43:44.802Z,101309.65
2019-02-22T04:46:48.292Z,101311.84
2019-02-22T04:49:51.782Z,101314.48
2019-02-22T04:52:55.300Z,101316.65
2019-02-22T04:55:58.803Z,101322.42
2019-02-22T04:59:05.578Z,101329.95
2019-02-22T05:02:09.087Z,101330.44
2019-02-22T05:05:12.397Z,101340.16
2019-02-22T05:08:15.877Z,101332.59
2019-02-22T05:11:19.430Z,101336.57
2019-02-22T05:14:23.070Z,101343.19
2019-02-22T05:17:26.580Z,101346.39
2019-02-22T05:20:30.067Z,101360.49
2019-02-22T05:23:33.583Z,101362.66
2019-02-22T05:26:37.083Z,101365.86
2019-02-22T05:29:40.570Z,101376.89
2019-02-22T05:32:44.075Z,101380.80
2019-02-22T05:35:48.624Z,101386.54
2019-02-22T05:38:52.229Z,101387.03
2019-02-22T05:41:55.827Z,101401.16
2019-02-22T05:44:59.323Z,101408.20
2019-02-22T05:48:02.813Z,101414.40
2019-02-22T05:51:06.386Z,101420.56
2019-02-22T05:54:10.038Z,101422.34
2019-02-22T05:57:14.388Z,101424.60
2019-02-22T06:00:19.629Z,101436.44
2019-02-22T06:03:23.171Z,101449.67
2019-02-22T06:06:26.688Z,101454.23
2019-02-22T06:09:30.162Z,101465.17
2019-02-22T06:12:34.797Z,101466.56
2019-02-22T06:15:38.621Z,101474.50
2019-02-22T06:18:43.153Z,101476.66
2019-02-22T06:21:48.701Z,101490.38
2019-02-22T06:24:52.205Z,101494.73
2019-02-22T06:27:57.761Z,101506.26
2019-02-22T06:31:01.249Z,101506.26
2019-02-22T06:34:04.745Z,101519.49
2019-02-22T06:37:09.275Z,101529.20
2019-02-22T06:40:12.787Z,101536.69
2019-02-22T06:43:16.318Z,101541.98
2019-02-22T06:46:19.774Z,101551.25
2019-02-22T06:49:24.320Z,101555.22
2019-02-22T06:52:29.782Z,101559.19
2019-02-22T06:55:33.553Z,101569.77
2019-02-22T06:58:37.227Z,101581.27
2019-02-22T07:01:40.741Z,101576.91
2019-02-22T07:04:44.260Z,101590.08
2019-02-22T07:07:48.082Z,101598.95
2019-02-22T07:11:09.777Z,101599.41
2019-02-22T07:14:13.413Z,101610.53
2019-02-22T07:17:17.942Z,101622.83
2019-02-22T07:20:21.410Z,101621.13
2019-02-22T07:23:24.857Z,101637.84
2019-02-22T07:26:28.418Z,101651.07
2019-02-22T07:29:32.017Z,101658.95
2019-02-22T07:32:35.634Z,101670.02
2019-02-22T07:35:39.162Z,101674.05
2019-02-22T07:38:42.639Z,101691.25
2019-02-22T07:41:46.138Z,101703.16
2019-02-22T07:44:49.617Z,101716.39
2019-02-22T07:47:53.175Z,101718.56
2019-02-22T07:51:02.849Z,101725.23
2019-02-22T07:54:07.289Z,101730.47
2019-02-22T07:57:11.815Z,101742.44
2019-02-22T08:00:17.369Z,101747.73
2019-02-22T08:03:20.878Z,101764.94
2019-02-22T08:06:24.369Z,101767.58
2019-02-22T08:09:27.867Z,101781.23
2019-02-22T08:12:31.376Z,101794.86
2019-02-22T08:15:35.912Z,101807.70
2019-02-22T08:18:42.466Z,101816.09
2019-02-22T08:21:45.961Z,101829.32
2019-02-22T08:24:49.478Z,101836.39
2019-02-22T08:27:54.454Z,101834.61
2019-02-22T08:30:58.135Z,101844.33
2019-02-22T08:34:01.620Z,101842.55
2019-02-22T08:37:05.110Z,101862.02
2019-02-22T08:40:09.424Z,101872.11
2019-02-22T08:43:12.946Z,101886.28
2019-02-22T08:46:16.451Z,101898.19
2019-02-22T08:49:19.958Z,101909.70
2019-02-22T08:52:23.443Z,101919.86
2019-02-22T08:55:26.958Z,101926.91
2019-02-22T08:58:30.469Z,101937.44
2019-02-22T09:01:35.703Z,101946.70
2019-02-22T09:04:39.499Z,101952.78
2019-02-22T09:07:44.011Z,101956.30
2019-02-22T09:10:59.654Z,101961.99
2019-02-22T09:13:52.858Z,101966.78
2019-02-22T09:16:57.387Z,101977.37
2019-02-22T09:20:00.882Z,101979.09
2019-02-22T09:23:07.288Z,101992.72
2019-02-22T09:26:11.588Z,101998.44
2019-02-22T09:29:15.080Z,102000.09
2019-02-22T09:32:18.650Z,102009.81
2019-02-22T09:35:22.295Z,102015.11
2019-02-22T09:38:25.774Z,102019.47
2019-02-22T09:41:30.322Z,102013.28
2019-02-22T09:44:33.831Z,102030.88
2019-02-22T09:47:37.316Z,102034.41
2019-02-22T09:50:40.846Z,102047.11
2019-02-22T09:53:44.295Z,102061.72
2019-02-22T09:56:47.815Z,102065.30
2019-02-22T09:59:53.375Z,102065.69
2019-02-22T10:02:56.893Z,102078.42
2019-02-22T10:06:00.367Z,102079.75
2019-02-22T10:09:05.397Z,102091.66
2019-02-22T10:12:08.894Z,102095.14
2019-02-22T10:15:12.619Z,102096.91
2019-02-22T10:18:18.261Z,102111.02
2019-02-22T10:21:22.799Z,102120.69
2019-02-22T10:24:27.412Z,102127.70
2019-02-22T10:27:31.007Z,102134.71
2019-02-22T10:30:34.512Z,102140.06
2019-02-22T10:33:39.038Z,102148.77
2019-02-22T10:36:45.366Z,102147.95
2019-02-22T10:39:47.895Z,102153.19
2019-02-22T10:42:51.403Z,102172.61
2019-02-22T10:45:54.846Z,102177.41
2019-02-22T10:48:58.394Z,102194.56
2019-02-22T10:52:02.998Z,102195.94
2019-02-22T10:55:06.480Z,102201.23
2019-02-22T10:58:09.937Z,102199.86
2019-02-22T11:01:13.418Z,102208.25
2019-02-22T11:04:17.015Z,102217.13
2019-02-22T11:07:20.624Z,102226.34
2019-02-22T11:10:24.122Z,102221.48
2019-02-22T11:13:27.617Z,102229.44
2019-02-22T11:16:31.134Z,102227.28
2019-02-22T11:19:34.688Z,102236.05
2019-02-22T11:22:38.440Z,102230.75
2019-02-22T11:25:42.147Z,102229.44
2019-02-22T11:28:45.717Z,102235.17
2019-02-22T11:31:49.243Z,102236.05
2019-02-22T11:34:53.780Z,102239.67
2019-02-22T11:37:57.259Z,102242.72
2019-02-22T11:41:00.781Z,102254.64
2019-02-22T11:44:04.232Z,102257.34
2019-02-22T11:47:07.675Z,102262.58
2019-02-22T11:50:11.311Z,102268.33
2019-02-22T11:53:16.820Z,102271.89
2019-02-22T11:56:20.319Z,102279.84
2019-02-22T11:59:23.810Z,102283.41
2019-02-22T12:02:27.337Z,102292.68
2019-02-22T12:05:30.934Z,102296.17
2019-02-22T12:08:34.511Z,102305.00
2019-02-22T12:11:38.043Z,102314.70
2019-02-22T12:14:51.141Z,102317.84
2019-02-22T12:17:46.903Z,102331.47
2019-02-22T12:20:51.393Z,102341.66
2019-02-22T12:23:54.993Z,102338.97
2019-02-22T12:26:58.611Z,102340.74
2019-02-22T12:30:02.099Z,102351.73
2019-02-22T12:33:07.656Z,102356.23
2019-02-22T12:36:12.194Z,102358.05
2019-02-22T12:39:15.697Z,102356.19
2019-02-22T12:42:19.216Z,102363.25
2019-02-22T12:45:22.672Z,102362.32
2019-02-22T12:48:26.300Z,102372.02
2019-02-22T12:51:29.890Z,102379.48
2019-02-22T12:54:33.484Z,102382.62
2019-02-22T12:57:38.129Z,102389.64
2019-02-22T13:00:41.639Z,102398.91
2019-02-22T13:03:46.141Z,102388.80
2019-02-22T13:06:52.188Z,102397.62
2019-02-22T13:10:02.782Z,102407.30
2019-02-22T13:13:06.301Z,102410.81
2019-02-22T13:16:09.840Z,102419.64
2019-02-22T13:19:13.322Z,102428.91
2019-02-22T13:22:17.919Z,102429.76
2019-02-22T13:25:21.511Z,102423.97
2019-02-22T13:28:25.062Z,102419.56
2019-02-22T13:31:30.294Z,102423.53
2019-02-22T13:34:34.079Z,102431.48
2019-02-22T13:37:37.557Z,102432.22
2019-02-22T13:40:41.072Z,102427.38
2019-02-22T13:43:44.590Z,102431.25
2019-02-22T13:46:49.120Z,102427.73
2019-02-22T13:49:52.677Z,102433.45
2019-02-22T13:52:56.408Z,102444.36
2019-02-22T13:56:00.048Z,102447.05
2019-02-22T13:59:03.564Z,102455.84
2019-02-22T14:02:08.028Z,102461.98
2019-02-22T14:05:11.561Z,102468.11
2019-02-22T14:08:15.057Z,102465.95
2019-02-22T14:11:18.541Z,102464.18
2019-02-22T14:14:23.075Z,102471.16
2019-02-22T14:17:26.551Z,102467.00
2019-02-22T14:20:30.055Z,102473.45
2019-02-22T14:23:34.831Z,102479.90
2019-02-22T14:26:38.459Z,102484.62
2019-02-22T14:29:43.012Z,102476.34
2019-02-22T14:32:47.119Z,102474.62
2019-02-22T14:35:50.662Z,102474.08
2019-02-22T14:38:54.185Z,102481.59
2019-02-22T14:41:57.645Z,102487.53
2019-02-22T14:45:01.960Z,102487.13
2019-02-22T14:48:05.593Z,102491.59
2019-02-22T14:51:10.240Z,102495.17
2019-02-22T14:54:14.733Z,102498.62
2019-02-22T14:57:18.228Z,102506.17
2019-02-22T15:00:21.818Z,102502.20
2019-02-22T15:03:25.428Z,102511.16
2019-02-22T15:06:28.924Z,102514.20
2019-02-22T15:09:33.483Z,102509.83
2019-02-22T15:12:37.004Z,102512.08
2019-02-22T15:16:00.879Z,102507.63
2019-02-22T15:19:01.773Z,102518.19
2019-02-22T15:22:05.263Z,102527.98
2019-02-22T15:25:10.510Z,102523.08
2019-02-22T15:28:15.202Z,102522.69
2019-02-22T15:31:18.843Z,102523.53
2019-02-22T15:34:22.351Z,102524.36
2019-02-22T15:37:25.953Z,102531.44
2019-02-22T15:40:29.536Z,102542.91
2019-02-22T15:43:34.107Z,102549.98
2019-02-22T15:46:37.570Z,102562.34
2019-02-22T15:49:41.206Z,102565.87
2019-02-22T15:52:45.457Z,102560.58
2019-02-22T15:55:49.932Z,102570.22
2019-02-22T15:58:53.431Z,102580.45
2019-02-22T16:01:57.023Z,102587.16
2019-02-22T16:05:11.536Z,102597.77
2019-02-22T16:08:15.206Z,102601.25
2019-02-22T16:11:18.690Z,102599.53
2019-02-22T16:14:23.222Z,102602.17
2019-02-22T16:17:26.752Z,102600.33
2019-02-22T16:20:30.313Z,102610.97
2019-02-22T16:23:34.022Z,102613.17
2019-02-22T16:26:37.635Z,102614.41
2019-02-22T16:29:41.121Z,102619.72
2019-02-22T16:32:44.755Z,102627.66
2019-02-22T16:35:48.438Z,102627.14
2019-02-22T16:38:52.069Z,102637.86
2019-02-22T16:41:55.564Z,102640.08
2019-02-22T16:44:59.056Z,102645.46
2019-02-22T16:48:02.577Z,102643.69
2019-02-22T16:51:06.064Z,102650.36
2019-02-22T16:54:09.560Z,102658.70
2019-02-22T16:57:13.046Z,102654.25
2019-02-22T17:00:16.798Z,102659.14
2019-02-22T17:03:20.282Z,102664.01
2019-02-22T17:06:23.788Z,102672.39
2019-02-22T17:09:27.376Z,102677.69
2019-02-22T17:12:30.958Z,102684.31
2019-02-22T17:15:34.487Z,102685.16
2019-02-22T17:18:37.976Z,102686.53
2019-02-22T17:21:43.549Z,102692.75
2019-02-22T17:24:48.084Z,102688.38
2019-02-22T17:27:51.586Z,102694.56
2019-02-22T17:30:55.048Z,102698.02
2019-02-22T17:33:58.551Z,102701.14
2019-02-22T17:37:03.166Z,102705.12
2019-02-22T17:40:09.634Z,102708.73
2019-02-22T17:43:13.189Z,102714.91
2019-02-22T17:46:16.646Z,102715.44
2019-02-22T17:49:20.144Z,102719.84
2019-02-22T17:52:23.632Z,102728.69
2019-02-22T17:55:27.149Z,102725.67
2019-02-22T17:58:33.607Z,102732.33
2019-02-22T18:01:38.042Z,102733.66
2019-02-22T18:04:41.549Z,102734.17
2019-02-22T18:07:45.086Z,102742.12
2019-02-22T18:10:48.531Z,102738.14
2019-02-22T18:13:52.089Z,102746.58
2019-02-22T18:16:55.745Z,102747.49
2019-02-22T18:19:59.255Z,102749.22
2019-02-22T18:23:02.842Z,102759.41
2019-02-22T18:26:06.462Z,102765.11
2019-02-22T18:29:09.984Z,102764.27
2019-02-22T18:32:13.550Z,102770.89
2019-02-22T18:35:17.158Z,102764.27
2019-02-22T18:38:20.789Z,102768.25
2019-02-22T18:41:24.395Z,102770.89
2019-02-22T18:44:27.871Z,102775.79
2019-02-22T18:47:31.401Z,102785.47
2019-02-22T18:50:34.840Z,102788.11
2019-02-22T18:53:38.429Z,102793.01
2019-02-22T18:56:42.102Z,102800.52
2019-02-22T18:59:45.695Z,102808.50
2019-02-22T19:02:49.206Z,102816.41
2019-02-22T19:05:53.024Z,102817.25
2019-02-22T19:08:57.539Z,102822.55
2019-02-22T19:12:03.094Z,102821.59
2019-02-22T19:15:07.807Z,102824.66
2019-02-22T19:18:11.323Z,102829.91
2019-02-22T19:21:15.828Z,102832.45
2019-02-22T19:24:19.526Z,102837.72
2019-02-22T19:27:23.171Z,102843.05
2019-02-22T19:30:26.739Z,102843.05
2019-02-22T19:33:30.175Z,102841.72
2019-02-22T19:36:33.830Z,102841.32
2019-02-22T19:39:37.431Z,102840.95
2019-02-22T19:42:40.965Z,102839.26
2019-02-22T19:45:45.472Z,102837.05
2019-02-22T19:48:48.918Z,102837.05
2019-02-22T19:51:53.490Z,102838.38
2019-02-22T19:54:57.111Z,102830.43
2019-02-22T19:58:00.707Z,102826.97
2019-02-22T20:01:04.314Z,102832.27
2019-02-22T20:04:07.900Z,102832.67
2019-02-22T20:07:11.508Z,102837.97
2019-02-22T20:10:18.290Z,102832.27
2019-02-22T20:13:21.860Z,102839.77
2019-02-22T20:16:25.397Z,102850.81
2019-02-22T20:19:28.896Z,102853.49
2019-02-22T20:22:32.411Z,102859.64
2019-02-22T20:25:35.961Z,102867.15
2019-02-22T20:28:39.596Z,102872.48
2019-02-22T20:31:43.111Z,102877.78
2019-02-22T20:34:46.712Z,102880.83
2019-02-22T20:37:53.118Z,102885.77
2019-02-22T20:40:56.679Z,102883.59
2019-02-22T20:44:00.189Z,102894.18
2019-02-22T20:47:03.883Z,102896.83
2019-02-22T20:50:08.558Z,102899.04
2019-02-22T20:53:12.110Z,102903.83
2019-02-22T20:56:15.673Z,102910.89
2019-02-22T20:59:19.302Z,102914.05
2019-02-22T21:02:22.813Z,102904.78
2019-02-22T21:05:26.325Z,102906.55
2019-02-22T21:08:29.836Z,102913.61
2019-02-22T21:11:34.456Z,102911.47
2019-02-22T21:14:38.088Z,102926.00
2019-02-22T21:17:41.567Z,102930.42
2019-02-22T21:20:45.019Z,102927.80
2019-02-22T21:23:48.572Z,102927.36
2019-02-22T21:26:52.074Z,102931.34
2019-02-22T21:29:56.651Z,102940.13
2019-02-22T21:33:00.274Z,102940.16
2019-02-22T21:36:03.729Z,102946.38
2019-02-22T21:39:07.462Z,102955.21
2019-02-22T21:42:19.854Z,102961.39
2019-02-22T21:45:16.128Z,102958.77
2019-02-22T21:48:27.573Z,102962.75
2019-02-22T21:51:26.089Z,102963.66
2019-02-22T21:54:29.537Z,102967.22
2019-02-22T21:57:32.995Z,102973.84
2019-02-22T22:00:36.499Z,102970.28
2019-02-22T22:03:39.935Z,102963.69
2019-02-22T22:06:43.403Z,102967.73
2019-02-22T22:09:46.853Z,102970.85
2019-02-22T22:12:50.529Z,102973.91
2019-02-22T22:15:54.032Z,102974.38
2019-02-22T22:18:57.518Z,102975.70
2019-02-22T22:22:04.074Z,102983.66
2019-02-22T22:25:08.300Z,102986.30
2019-02-22T22:28:11.798Z,102982.87
2019-02-22T22:31:15.404Z,102978.45
2019-02-22T22:34:18.918Z,102980.25
2019-02-22T22:37:22.414Z,102980.25
2019-02-22T22:40:25.904Z,102983.78
2019-02-22T22:43:29.421Z,102995.25
2019-02-22T22:46:36.865Z,102987.81
2019-02-22T22:49:38.094Z,102991.75
2019-02-22T22:52:41.557Z,102976.34
2019-02-22T22:55:47.123Z,102963.60
2019-02-22T22:58:50.831Z,102961.83
2019-02-22T23:01:55.007Z,102966.69
2019-02-22T23:04:58.610Z,102969.37
2019-02-22T23:08:02.138Z,102973.78
2019-02-22T23:11:05.627Z,102976.88
2019-02-22T23:14:09.113Z,102981.76
2019-02-22T23:17:13.052Z,102993.67
2019-02-22T23:20:16.526Z,102999.47
2019-02-22T23:23:20.036Z,103010.47
2019-02-22T23:26:24.684Z,103004.73
2019-02-22T23:29:28.150Z,103003.50
2019-02-22T23:32:31.812Z,103007.89
2019-02-22T23:35:35.464Z,103006.16
2019-02-22T23:38:38.971Z,103008.80
2019-02-22T23:41:42.491Z,103015.89
2019-02-22T23:44:45.992Z,103024.74
2019-02-22T23:47:49.455Z,103025.66
2019-02-22T23:50:54.230Z,103024.74
2019-02-22T23:53:57.714Z,103017.27
2019-02-22T23:57:01.235Z,103011.97
